createdAt,value
2023-05-14T00:01:54.399Z,13.20
2023-05-14T00:04:21.437Z,14.10
2023-05-14T00:06:48.487Z,11.70
2023-05-14T00:09:15.427Z,9.60
2023-05-14T00:11:42.580Z,7.70
2023-05-14T00:14:09.545Z,11.60
2023-05-14T00:16:36.742Z,5.90
2023-05-14T00:19:03.993Z,10.70
2023-05-14T00:21:32.034Z,9.60
2023-05-14T00:23:59.139Z,7.00
2023-05-14T00:26:26.092Z,7.80
2023-05-14T00:28:53.034Z,13.20
2023-05-14T00:31:20.007Z,8.70
2023-05-14T00:33:46.974Z,7.10
2023-05-14T00:36:13.966Z,8.30
2023-05-14T00:38:40.832Z,6.90
2023-05-14T00:41:08.264Z,12.70
2023-05-14T00:43:35.837Z,8.70
2023-05-14T00:46:02.972Z,9.10
2023-05-14T00:48:30.223Z,9.20
2023-05-14T00:50:57.703Z,5.50
2023-05-14T00:53:26.976Z,9.80
2023-05-14T00:55:54.031Z,7.40
2023-05-14T00:58:20.970Z,10.60
2023-05-14T01:00:48.484Z,10.20
2023-05-14T01:03:16.076Z,9.50
2023-05-14T01:06:18.552Z,6.80
2023-05-14T01:09:07.640Z,4.90
2023-05-14T01:12:00.010Z,12.20
2023-05-14T01:15:09.302Z,8.20
2023-05-14T01:17:41.603Z,9.90
2023-05-14T01:20:09.435Z,10.00
2023-05-14T01:22:36.919Z,8.40
2023-05-14T01:25:05.600Z,9.60
2023-05-14T01:27:36.520Z,12.70
2023-05-14T01:30:06.837Z,7.70
2023-05-14T01:32:33.799Z,6.30
2023-05-14T01:35:00.744Z,7.80
2023-05-14T01:37:28.713Z,6.10
2023-05-14T01:39:56.152Z,7.60
2023-05-14T01:42:23.355Z,8.10
2023-05-14T01:44:50.471Z,6.40
2023-05-14T01:47:17.399Z,9.30
2023-05-14T01:49:44.337Z,12.30
2023-05-14T01:52:12.197Z,7.00
2023-05-14T01:54:39.148Z,10.70
2023-05-14T01:57:06.096Z,5.40
2023-05-14T01:59:33.035Z,6.50
2023-05-14T02:01:59.923Z,13.60
2023-05-14T02:04:27.083Z,12.60
2023-05-14T02:06:54.275Z,4.30
2023-05-14T02:09:24.498Z,7.20
2023-05-14T02:11:51.445Z,12.90
2023-05-14T02:14:18.490Z,5.70
2023-05-14T02:16:45.451Z,3.90
2023-05-14T02:19:12.503Z,3.60
2023-05-14T02:21:39.523Z,9.30
2023-05-14T02:24:06.793Z,5.80
2023-05-14T02:26:33.729Z,7.30
2023-05-14T02:29:00.772Z,6.40
2023-05-14T02:31:27.868Z,4.90
2023-05-14T02:33:54.861Z,4.90
2023-05-14T02:36:21.916Z,3.70
2023-05-14T02:38:48.953Z,5.20
2023-05-14T02:41:15.834Z,5.10
2023-05-14T02:43:42.742Z,5.40
2023-05-14T02:46:09.794Z,6.60
2023-05-14T02:48:36.738Z,5.90
2023-05-14T02:51:04.038Z,6.50
2023-05-14T02:53:31.251Z,4.10
2023-05-14T02:55:58.801Z,4.40
2023-05-14T02:58:28.206Z,6.70
2023-05-14T03:00:56.206Z,13.00
2023-05-14T03:03:23.881Z,10.00
2023-05-14T03:05:52.142Z,8.80
2023-05-14T03:08:19.267Z,7.30
2023-05-14T03:10:46.202Z,8.40
2023-05-14T03:13:14.685Z,5.30
2023-05-14T03:15:42.254Z,10.40
2023-05-14T03:18:09.317Z,5.10
2023-05-14T03:20:36.328Z,8.80
2023-05-14T03:23:03.788Z,3.80
2023-05-14T03:25:30.728Z,4.40
2023-05-14T03:27:59.013Z,5.10
2023-05-14T03:30:26.407Z,4.90
2023-05-14T03:32:53.622Z,4.10
2023-05-14T03:35:20.778Z,7.60
2023-05-14T03:37:47.703Z,5.50
2023-05-14T03:40:14.654Z,7.30
2023-05-14T03:42:43.543Z,7.90
2023-05-14T03:45:10.908Z,10.70
2023-05-14T03:47:38.093Z,16.00
2023-05-14T03:50:07.285Z,11.00
2023-05-14T03:52:34.180Z,33.00
2023-05-14T03:55:02.781Z,16.20
2023-05-14T03:57:29.815Z,22.90
2023-05-14T03:59:56.782Z,28.50
2023-05-14T04:02:23.755Z,38.10
2023-05-14T04:04:50.798Z,22.00
2023-05-14T04:07:20.257Z,31.90
2023-05-14T04:09:47.299Z,27.00
2023-05-14T04:12:14.346Z,38.70
2023-05-14T04:14:41.309Z,42.70
2023-05-14T04:17:08.235Z,49.10
2023-05-14T04:19:35.187Z,44.60
2023-05-14T04:22:03.353Z,38.40
2023-05-14T04:24:30.398Z,41.30
2023-05-14T04:26:57.344Z,27.00
2023-05-14T04:29:24.292Z,44.90
2023-05-14T04:31:51.181Z,50.20
2023-05-14T04:34:18.172Z,47.20
2023-05-14T04:36:45.120Z,47.90
2023-05-14T04:39:12.780Z,46.20
2023-05-14T04:41:39.725Z,31.20
2023-05-14T04:44:07.280Z,48.80
2023-05-14T04:46:34.419Z,43.90
2023-05-14T04:49:01.578Z,53.90
2023-05-14T04:51:28.642Z,26.40
2023-05-14T04:53:55.675Z,21.30
2023-05-14T04:56:22.631Z,36.70
2023-05-14T04:58:49.558Z,22.60
2023-05-14T05:01:16.675Z,21.10
2023-05-14T05:03:43.647Z,20.00
2023-05-14T05:06:10.704Z,22.60
2023-05-14T05:08:37.958Z,15.30
2023-05-14T05:11:05.306Z,45.90
2023-05-14T05:13:32.463Z,30.60
2023-05-14T05:15:59.545Z,13.70
2023-05-14T05:18:26.628Z,25.90
2023-05-14T05:20:53.709Z,34.50
2023-05-14T05:23:20.570Z,27.60
2023-05-14T05:25:48.115Z,18.90
2023-05-14T05:28:15.154Z,16.80
2023-05-14T05:30:42.201Z,10.50
2023-05-14T05:33:09.172Z,11.30
2023-05-14T05:35:36.114Z,15.30
2023-05-14T05:38:03.445Z,7.50
2023-05-14T05:40:30.484Z,7.70
2023-05-14T05:42:57.440Z,7.80
2023-05-14T05:45:24.375Z,6.50
2023-05-14T05:47:51.584Z,8.70
2023-05-14T05:51:44.591Z,6.20
2023-05-14T05:54:11.557Z,3.90
2023-05-14T05:56:38.500Z,4.70
2023-05-14T05:59:05.538Z,7.80
2023-05-14T06:01:32.772Z,10.90
2023-05-14T06:03:59.723Z,11.00
2023-05-14T06:06:26.579Z,3.60
2023-05-14T06:08:53.604Z,9.80
2023-05-14T06:11:21.991Z,5.20
2023-05-14T06:13:49.270Z,5.20
2023-05-14T06:16:16.313Z,4.00
2023-05-14T06:18:43.326Z,5.60
2023-05-14T06:21:10.386Z,7.90
2023-05-14T06:23:37.321Z,8.90
2023-05-14T06:26:04.368Z,4.50
2023-05-14T06:28:31.314Z,5.50
2023-05-14T06:30:58.162Z,11.40
2023-05-14T06:33:31.241Z,6.00
2023-05-14T06:35:59.562Z,4.50
2023-05-14T06:38:26.976Z,5.10
2023-05-14T06:40:53.935Z,3.40
2023-05-14T06:43:21.066Z,6.70
2023-05-14T06:45:52.314Z,8.00
2023-05-14T06:48:19.839Z,6.10
2023-05-14T06:50:47.940Z,7.60
2023-05-14T06:53:15.519Z,5.10
2023-05-14T06:55:42.547Z,3.50
2023-05-14T06:58:09.721Z,11.60
2023-05-14T07:00:36.844Z,7.50
2023-05-14T07:03:04.031Z,5.20
2023-05-14T07:05:31.044Z,4.20
2023-05-14T07:07:57.984Z,11.50
2023-05-14T07:10:25.458Z,6.50
2023-05-14T07:12:52.553Z,9.90
2023-05-14T07:15:19.664Z,3.60
2023-05-14T07:17:46.720Z,4.80
2023-05-14T07:20:13.740Z,4.60
2023-05-14T07:22:40.682Z,11.20
2023-05-14T07:25:08.237Z,13.20
2023-05-14T07:27:35.189Z,4.50
2023-05-14T07:30:02.158Z,3.50
2023-05-14T07:32:29.073Z,4.00
2023-05-14T07:34:56.114Z,6.90
2023-05-14T07:37:24.154Z,3.30
2023-05-14T07:39:51.843Z,9.00
2023-05-14T07:42:31.886Z,9.60
2023-05-14T07:45:02.732Z,9.40
2023-05-14T07:47:29.792Z,13.30
2023-05-14T07:49:57.445Z,10.30
2023-05-14T07:52:24.910Z,3.20
2023-05-14T07:54:52.161Z,7.20
2023-05-14T07:57:19.960Z,4.40
2023-05-14T07:59:48.117Z,13.60
2023-05-14T08:02:17.040Z,4.30
2023-05-14T08:04:44.428Z,11.30
2023-05-14T08:07:11.377Z,10.10
2023-05-14T08:09:38.345Z,4.90
2023-05-14T08:12:06.190Z,8.80
2023-05-14T08:14:33.440Z,7.70
2023-05-14T08:17:00.496Z,7.70
2023-05-14T08:19:27.944Z,7.70
2023-05-14T08:21:54.989Z,7.30
2023-05-14T08:24:21.933Z,6.00
2023-05-14T08:26:48.857Z,16.50
2023-05-14T08:29:16.777Z,6.70
2023-05-14T08:31:44.135Z,7.90
2023-05-14T08:34:11.144Z,5.70
2023-05-14T08:36:39.055Z,5.10
2023-05-14T08:39:07.951Z,8.70
2023-05-14T08:41:35.236Z,6.00
2023-05-14T08:44:15.306Z,2.70
2023-05-14T08:46:42.251Z,4.40
2023-05-14T08:49:22.812Z,2.50
2023-05-14T08:51:50.079Z,2.30
2023-05-14T08:54:19.871Z,8.40
2023-05-14T08:56:46.912Z,6.00
2023-05-14T08:59:13.884Z,2.70
2023-05-14T09:01:44.757Z,9.00
2023-05-14T09:04:11.869Z,10.90
2023-05-14T09:06:38.952Z,9.30
2023-05-14T09:09:06.154Z,1.60
2023-05-14T09:11:33.090Z,9.40
2023-05-14T09:13:59.985Z,2.10
2023-05-14T09:16:27.079Z,3.30
2023-05-14T09:18:54.651Z,5.80
2023-05-14T09:21:21.684Z,3.30
2023-05-14T09:23:49.959Z,11.60
2023-05-14T09:26:17.965Z,4.50
2023-05-14T09:28:44.972Z,6.40
2023-05-14T09:31:12.572Z,4.50
2023-05-14T09:33:39.584Z,7.30
2023-05-14T09:36:07.445Z,7.10
2023-05-14T09:38:34.387Z,3.40
2023-05-14T09:41:01.310Z,10.10
2023-05-14T09:43:28.580Z,2.90
2023-05-14T09:45:56.142Z,4.50
2023-05-14T09:48:23.178Z,6.50
2023-05-14T09:50:51.728Z,4.30
2023-05-14T09:53:18.820Z,12.70
2023-05-14T09:55:45.764Z,5.40
2023-05-14T09:58:14.667Z,6.00
2023-05-14T10:00:45.612Z,7.50
2023-05-14T10:03:15.199Z,1.40
2023-05-14T10:05:43.069Z,2.80
2023-05-14T10:08:14.857Z,11.40
2023-05-14T10:10:41.971Z,3.80
2023-05-14T10:13:13.745Z,17.50
2023-05-14T10:15:43.784Z,5.90
2023-05-14T10:18:12.359Z,4.50
2023-05-14T10:20:41.212Z,2.30
2023-05-14T10:23:08.369Z,10.10
2023-05-14T10:25:35.717Z,3.30
2023-05-14T10:28:02.763Z,2.50
2023-05-14T10:30:29.711Z,2.60
2023-05-14T10:33:10.058Z,15.50
2023-05-14T10:36:05.992Z,7.50
2023-05-14T10:38:36.937Z,4.70
2023-05-14T10:41:18.190Z,15.70
2023-05-14T10:43:45.262Z,7.60
2023-05-14T10:46:13.929Z,8.80
2023-05-14T10:48:44.196Z,3.70
2023-05-14T10:51:12.346Z,3.00
2023-05-14T10:53:41.287Z,1.70
2023-05-14T10:56:11.969Z,5.70
2023-05-14T10:58:43.238Z,7.80
2023-05-14T11:01:12.400Z,5.50
2023-05-14T11:03:46.608Z,2.20
2023-05-14T11:06:15.733Z,2.00
2023-05-14T11:08:43.039Z,6.10
2023-05-14T11:11:10.622Z,5.90
2023-05-14T11:13:37.690Z,6.70
2023-05-14T11:16:18.988Z,5.30
2023-05-14T11:18:54.935Z,5.00
2023-05-14T11:21:22.103Z,4.80
2023-05-14T11:23:49.120Z,13.40
2023-05-14T11:26:16.336Z,6.30
2023-05-14T11:28:43.603Z,5.30
2023-05-14T11:31:10.595Z,7.10
2023-05-14T11:33:37.591Z,9.00
2023-05-14T11:36:05.364Z,8.40
2023-05-14T11:38:32.310Z,4.50
2023-05-14T11:40:59.718Z,6.10
2023-05-14T11:43:29.590Z,5.10
2023-05-14T11:45:57.909Z,4.50
2023-05-14T11:48:24.899Z,6.00
2023-05-14T11:50:53.181Z,4.20
2023-05-14T11:53:29.044Z,7.40
2023-05-14T11:55:57.948Z,2.80
2023-05-14T11:58:25.059Z,2.70
2023-05-14T12:00:52.851Z,5.00
2023-05-14T12:03:26.916Z,4.30
2023-05-14T12:05:58.899Z,5.20
2023-05-14T12:08:30.114Z,8.50
2023-05-14T12:10:58.763Z,3.50
2023-05-14T12:13:32.638Z,8.00
2023-05-14T12:16:02.532Z,6.60
2023-05-14T12:18:31.399Z,4.80
2023-05-14T12:21:03.296Z,7.70
2023-05-14T12:23:30.479Z,10.50
2023-05-14T12:26:06.819Z,11.00
2023-05-14T12:28:36.855Z,13.60
2023-05-14T12:31:05.227Z,5.20
2023-05-14T12:33:32.242Z,7.90
2023-05-14T12:36:19.738Z,16.30
2023-05-14T12:38:49.479Z,11.20
2023-05-14T12:41:18.382Z,10.90
2023-05-14T12:43:45.520Z,13.50
2023-05-14T12:46:12.876Z,14.30
2023-05-14T12:48:39.732Z,5.40
2023-05-14T12:51:07.223Z,6.50
2023-05-14T12:53:35.444Z,11.20
2023-05-14T12:56:02.568Z,13.90
2023-05-14T12:58:29.549Z,10.70
2023-05-14T13:00:56.829Z,8.10
2023-05-14T13:03:24.225Z,12.00
2023-05-14T13:05:52.674Z,7.10
2023-05-14T13:08:21.636Z,3.90
2023-05-14T13:10:48.666Z,10.20
2023-05-14T13:13:16.121Z,3.80
2023-05-14T13:15:43.166Z,3.00
2023-05-14T13:18:10.560Z,5.10
2023-05-14T13:20:37.534Z,3.60
2023-05-14T13:23:04.509Z,1.40
2023-05-14T13:25:31.453Z,4.90
2023-05-14T13:27:58.337Z,6.90
2023-05-14T13:30:25.454Z,3.60
2023-05-14T13:32:52.406Z,7.80
2023-05-14T13:35:19.534Z,3.90
2023-05-14T13:37:47.095Z,7.60
2023-05-14T13:40:13.963Z,14.20
2023-05-14T13:42:41.106Z,3.80
2023-05-14T13:45:08.757Z,10.20
2023-05-14T13:47:36.152Z,7.60
2023-05-14T13:50:03.277Z,8.90
2023-05-14T13:52:30.192Z,12.10
2023-05-14T13:54:57.134Z,10.10
2023-05-14T13:57:24.289Z,8.10
2023-05-14T13:59:51.336Z,8.70
2023-05-14T14:02:18.282Z,25.90
2023-05-14T14:04:45.457Z,30.20
2023-05-14T14:07:12.411Z,30.80
2023-05-14T14:09:39.422Z,52.80
2023-05-14T14:12:07.256Z,22.40
2023-05-14T14:14:34.330Z,8.50
2023-05-14T14:17:01.288Z,14.60
2023-05-14T14:19:28.226Z,6.60
2023-05-14T14:21:55.177Z,13.40
2023-05-14T14:24:22.038Z,15.00
2023-05-14T14:26:49.360Z,60.00
2023-05-14T14:29:16.407Z,60.90
2023-05-14T14:31:43.830Z,32.10
2023-05-14T14:34:11.117Z,46.50
2023-05-14T14:36:38.080Z,20.30
2023-05-14T14:39:05.033Z,25.70
2023-05-14T14:41:31.946Z,52.50
2023-05-14T14:43:58.891Z,63.10
2023-05-14T14:46:26.457Z,11.90
2023-05-14T14:48:53.594Z,10.70
2023-05-14T14:51:20.643Z,8.10
2023-05-14T14:53:48.010Z,17.00
2023-05-14T14:56:15.692Z,14.30
2023-05-14T14:58:42.617Z,10.50
2023-05-14T15:01:09.706Z,9.00
2023-05-14T15:03:36.786Z,15.70
2023-05-14T15:06:04.593Z,4.30
2023-05-14T15:08:31.610Z,6.50
2023-05-14T15:11:00.117Z,4.70
2023-05-14T15:13:28.476Z,3.60
2023-05-14T15:15:55.486Z,12.30
2023-05-14T15:18:22.954Z,12.20
2023-05-14T15:20:50.119Z,5.20
2023-05-14T15:23:17.181Z,2.30
2023-05-14T15:25:44.423Z,6.80
2023-05-14T15:28:11.467Z,6.70
2023-05-14T15:30:38.510Z,10.70
2023-05-14T15:33:07.779Z,4.30
2023-05-14T15:35:34.962Z,3.40
2023-05-14T15:38:01.923Z,3.70
2023-05-14T15:40:28.958Z,12.70
2023-05-14T15:42:55.876Z,5.60
2023-05-14T15:45:22.938Z,3.60
2023-05-14T15:47:50.010Z,1.70
2023-05-14T15:50:17.140Z,2.50
2023-05-14T15:52:44.024Z,12.20
2023-05-14T15:55:11.124Z,5.30
2023-05-14T15:57:38.070Z,9.30
2023-05-14T16:00:11.569Z,3.10
2023-05-14T16:02:39.144Z,13.30
2023-05-14T16:05:07.610Z,9.60
2023-05-14T16:07:34.656Z,42.00
2023-05-14T16:10:01.513Z,16.40
2023-05-14T16:12:28.647Z,28.10
2023-05-14T16:14:57.795Z,10.10
2023-05-14T16:17:24.838Z,11.70
2023-05-14T16:19:53.468Z,23.00
2023-05-14T16:22:22.353Z,12.20
2023-05-14T16:24:49.301Z,24.90
2023-05-14T16:27:18.538Z,16.70
2023-05-14T16:29:45.562Z,12.00
2023-05-14T16:32:12.739Z,15.50
2023-05-14T16:34:39.947Z,13.70
2023-05-14T16:37:06.886Z,10.10
2023-05-14T16:39:33.828Z,16.90
2023-05-14T16:42:01.184Z,7.60
2023-05-14T16:44:28.150Z,9.90
2023-05-14T16:46:55.076Z,11.10
2023-05-14T16:49:23.043Z,11.40
2023-05-14T16:51:50.000Z,20.00
2023-05-14T16:54:16.927Z,34.60
2023-05-14T16:56:48.374Z,34.70
2023-05-14T16:59:15.988Z,26.70
2023-05-14T17:01:43.739Z,16.90
2023-05-14T17:04:10.824Z,21.50
2023-05-14T17:06:37.739Z,14.00
2023-05-14T17:09:05.313Z,16.20
2023-05-14T17:11:32.558Z,17.20
2023-05-14T17:13:59.556Z,11.80
2023-05-14T17:16:27.238Z,21.10
2023-05-14T17:18:54.299Z,17.70
2023-05-14T17:21:21.606Z,24.80
2023-05-14T17:23:48.546Z,7.10
2023-05-14T17:26:15.591Z,5.30
2023-05-14T17:28:42.538Z,8.00
2023-05-14T17:31:09.532Z,26.00
2023-05-14T17:33:36.653Z,32.80
2023-05-14T17:36:04.183Z,24.20
2023-05-14T17:38:31.335Z,24.10
2023-05-14T17:40:59.545Z,50.80
2023-05-14T17:43:26.549Z,38.40
2023-05-14T17:45:54.758Z,51.40
2023-05-14T17:48:23.237Z,42.70
2023-05-14T17:50:51.752Z,34.60
2023-05-14T17:53:19.055Z,36.50
2023-05-14T17:55:46.064Z,34.70
2023-05-14T17:58:14.684Z,37.50
2023-05-14T18:00:41.903Z,40.00
2023-05-14T18:03:09.303Z,50.00
2023-05-14T18:05:36.439Z,27.80
2023-05-14T18:09:52.752Z,32.90
2023-05-14T18:12:19.703Z,27.00
2023-05-14T18:14:46.647Z,31.60
2023-05-14T18:17:13.788Z,35.40
2023-05-14T18:19:43.610Z,45.10
2023-05-14T18:22:10.609Z,49.70
2023-05-14T18:24:37.595Z,36.00
2023-05-14T18:27:04.848Z,32.00
2023-05-14T18:29:31.790Z,19.40
2023-05-14T18:31:58.730Z,30.70
2023-05-14T18:34:25.692Z,34.90
2023-05-14T18:36:52.717Z,32.20
2023-05-14T18:39:19.699Z,27.70
2023-05-14T18:41:46.557Z,39.50
2023-05-14T18:44:13.762Z,25.70
2023-05-14T18:46:40.724Z,29.00
2023-05-14T18:49:07.622Z,33.30
2023-05-14T18:51:34.602Z,37.50
2023-05-14T18:54:01.553Z,25.90
2023-05-14T18:56:28.581Z,26.50
2023-05-14T18:58:55.528Z,32.10
2023-05-14T19:01:25.385Z,31.00
2023-05-14T19:03:53.246Z,33.00
2023-05-14T19:06:21.068Z,41.70
2023-05-14T19:08:48.020Z,20.60
2023-05-14T19:11:16.493Z,18.00
2023-05-14T19:13:46.740Z,15.20
2023-05-14T19:16:13.680Z,22.20
2023-05-14T19:18:40.841Z,30.90
2023-05-14T19:21:08.186Z,17.40
2023-05-14T19:23:35.215Z,13.50
2023-05-14T19:26:04.000Z,15.60
2023-05-14T19:28:31.036Z,19.50
2023-05-14T19:30:57.937Z,14.50
2023-05-14T19:33:26.258Z,21.90
2023-05-14T19:35:53.197Z,24.30
2023-05-14T19:38:20.963Z,17.50
2023-05-14T19:40:47.919Z,13.20
2023-05-14T19:43:15.171Z,11.50
2023-05-14T19:45:42.916Z,11.80
2023-05-14T19:48:10.511Z,14.00
2023-05-14T19:50:37.837Z,8.30
2023-05-14T19:53:04.795Z,8.10
2023-05-14T19:55:31.725Z,11.20
2023-05-14T19:57:58.668Z,8.90
2023-05-14T20:00:26.880Z,12.90
2023-05-14T20:02:54.857Z,8.00
2023-05-14T20:05:22.167Z,7.80
2023-05-14T20:07:49.408Z,7.50
2023-05-14T20:10:16.463Z,15.10
2023-05-14T20:12:43.508Z,7.40
2023-05-14T20:15:11.083Z,13.50
2023-05-14T20:17:38.987Z,11.10
2023-05-14T20:20:07.115Z,8.20
2023-05-14T20:22:34.053Z,8.70
2023-05-14T20:25:00.996Z,18.90
2023-05-14T20:27:27.940Z,5.70
2023-05-14T20:29:54.882Z,15.30
2023-05-14T20:32:25.132Z,7.10
2023-05-14T20:34:52.358Z,12.90
2023-05-14T20:37:22.272Z,11.10
2023-05-14T20:39:49.261Z,9.30
2023-05-14T20:42:16.263Z,13.70
2023-05-14T20:44:43.160Z,12.80
2023-05-14T20:47:09.998Z,9.10
2023-05-14T20:49:36.991Z,10.10
2023-05-14T20:52:04.484Z,5.40
2023-05-14T20:54:31.401Z,12.40
2023-05-14T20:56:58.248Z,8.00
2023-05-14T20:59:25.179Z,10.40
2023-05-14T21:01:52.202Z,11.10
2023-05-14T21:04:19.492Z,10.90
2023-05-14T21:06:46.626Z,12.30
2023-05-14T21:09:13.570Z,16.60
2023-05-14T21:11:40.510Z,12.60
2023-05-14T21:14:07.462Z,19.80
2023-05-14T21:16:34.555Z,15.30
2023-05-14T21:19:01.603Z,18.00
2023-05-14T21:21:29.110Z,23.80
2023-05-14T21:23:56.052Z,17.80
2023-05-14T21:26:23.715Z,18.60
2023-05-14T21:28:50.665Z,23.30
2023-05-14T21:31:17.649Z,21.80
2023-05-14T21:33:44.648Z,18.90
2023-05-14T21:36:12.029Z,25.90
2023-05-14T21:38:39.048Z,22.60
2023-05-14T21:41:06.098Z,14.10
2023-05-14T21:43:34.170Z,11.10
2023-05-14T21:46:01.121Z,16.00
2023-05-14T21:48:28.527Z,11.40
2023-05-14T21:50:56.036Z,11.60
2023-05-14T21:53:23.074Z,13.50
2023-05-14T21:55:50.113Z,15.60
2023-05-14T21:58:16.998Z,12.70
2023-05-14T22:00:44.012Z,9.50
2023-05-14T22:03:11.596Z,11.10
2023-05-14T22:05:38.946Z,15.60
2023-05-14T22:08:06.272Z,15.90
2023-05-14T22:10:34.748Z,19.00
2023-05-14T22:13:01.696Z,13.60
2023-05-14T22:15:28.637Z,11.90
2023-05-14T22:17:56.103Z,12.70
2023-05-14T22:20:23.152Z,8.90
2023-05-14T22:22:50.503Z,11.10
2023-05-14T22:25:17.644Z,21.30
2023-05-14T22:27:44.584Z,14.10
2023-05-14T22:30:12.048Z,12.20
2023-05-14T22:32:39.135Z,20.80
2023-05-14T22:35:06.244Z,14.20
2023-05-14T22:37:33.185Z,16.80
2023-05-14T22:40:02.279Z,14.50
2023-05-14T22:42:29.178Z,13.20
2023-05-14T22:44:56.066Z,15.60
2023-05-14T22:47:23.037Z,13.50
2023-05-14T22:49:50.057Z,27.60
2023-05-14T22:52:18.948Z,15.40
2023-05-14T22:54:46.814Z,17.00
2023-05-14T22:57:13.756Z,16.40
2023-05-14T22:59:40.652Z,17.10
2023-05-14T23:02:07.569Z,17.50
2023-05-14T23:04:35.456Z,22.80
2023-05-14T23:07:02.463Z,16.90
2023-05-14T23:09:29.613Z,22.20
2023-05-14T23:11:56.495Z,20.00
2023-05-14T23:14:23.496Z,22.60
2023-05-14T23:16:50.454Z,19.40
2023-05-14T23:19:17.653Z,19.70
2023-05-14T23:21:44.662Z,17.40
2023-05-14T23:24:11.683Z,17.90
2023-05-14T23:26:38.825Z,16.40
2023-05-14T23:29:06.186Z,18.60
2023-05-14T23:31:33.346Z,22.60
2023-05-14T23:34:00.479Z,27.40
2023-05-14T23:36:27.428Z,23.70
2023-05-14T23:38:54.377Z,20.80
2023-05-14T23:41:21.927Z,22.40
2023-05-14T23:43:49.187Z,23.40
2023-05-14T23:46:16.358Z,21.70
2023-05-14T23:48:43.373Z,20.90
2023-05-14T23:51:10.724Z,17.20
2023-05-14T23:53:38.080Z,16.50
2023-05-14T23:56:05.229Z,22.80
2023-05-14T23:58:33.202Z,20.30
